Time;durP1;ratioP1;P1;durP2;ratioP2;P2;SDS_P1;SDS_P2;PMS_P1;PMS_P2;Temp;Humidity;BMP_temperature;BMP_pressure;BME280_temperature;BME280_humidity;BME280_pressure;Samples;Min_cycle;Max_cycle;Signal;HPM_P1;HPM_P2
2022/10/12 00:00:41;;;;;;;21.35;14.38;;;;;;;;;;6251910;28;20049;-62
2022/10/12 00:03:43;;;;;;;18.38;13.38;;;;;;;;;;6254079;28;20080;-62
2022/10/12 00:06:45;;;;;;;22.33;14.30;;;;;;;;;;6252776;28;20096;-62
2022/10/12 00:09:46;;;;;;;17.92;13.32;;;;;;;;;;6248934;28;20099;-62
2022/10/12 00:12:48;;;;;;;20.75;14.18;;;;;;;;;;6256631;28;20053;-62
2022/10/12 00:15:51;;;;;;;21.02;13.27;;;;;;;;;;6255748;28;20127;-62
2022/10/12 00:18:54;;;;;;;20.08;13.90;;;;;;;;;;6255919;28;20049;-62
2022/10/12 00:21:55;;;;;;;21.85;13.85;;;;;;;;;;6253938;28;20061;-62
2022/10/12 00:24:57;;;;;;;18.48;12.70;;;;;;;;;;6255469;28;20049;-63
2022/10/12 00:27:58;;;;;;;20.38;13.70;;;;;;;;;;6252564;28;20246;-62
2022/10/12 00:31:02;;;;;;;19.73;12.88;;;;;;;;;;6252133;28;20057;-63
2022/10/12 00:34:04;;;;;;;20.92;13.13;;;;;;;;;;6255580;28;20057;-62
2022/10/12 00:37:05;;;;;;;21.60;13.15;;;;;;;;;;6254719;28;20041;-64
2022/10/12 00:40:08;;;;;;;19.48;12.80;;;;;;;;;;6251566;28;20044;-63
2022/10/12 00:43:25;;;;;;;19.40;12.48;;;;;;;;;;6255795;28;20053;-62
2022/10/12 00:46:32;;;;;;;21.38;13.60;;;;;;;;;;6253924;28;20092;-63
2022/10/12 00:49:34;;;;;;;22.05;13.13;;;;;;;;;;6255074;28;20295;-62
2022/10/12 00:52:39;;;;;;;20.83;12.45;;;;;;;;;;6254691;28;20325;-62
2022/10/12 00:55:47;;;;;;;19.38;12.73;;;;;;;;;;6250401;28;20053;-62
2022/10/12 00:58:49;;;;;;;15.68;12.40;;;;;;;;;;6255899;28;20099;-62
2022/10/12 01:01:52;;;;;;;19.63;12.57;;;;;;;;;;6250279;28;20333;-62
2022/10/12 01:04:54;;;;;;;18.52;12.07;;;;;;;;;;6251605;28;20205;-62
2022/10/12 01:07:58;;;;;;;17.50;12.52;;;;;;;;;;6252341;28;20068;-62
2022/10/12 01:10:59;;;;;;;;;;;;;;;;;;6250706;28;20359;-62
2022/10/12 01:14:01;;;;;;;18.48;12.63;;;;;;;;;;6251015;28;20448;-62
2022/10/12 01:17:11;;;;;;;16.90;11.93;;;;;;;;;;6251409;28;20048;-62
2022/10/12 01:20:36;;;;;;;20.42;13.23;;;;;;;;;;6254110;28;20139;-62
2022/10/12 01:24:18;;;;;;;19.40;12.52;;;;;;;;;;6253927;28;20041;-62
2022/10/12 01:27:43;;;;;;;17.98;12.18;;;;;;;;;;6252263;28;20049;-62
2022/10/12 01:30:48;;;;;;;19.55;12.25;;;;;;;;;;6249054;28;20120;-62
2022/10/12 01:33:55;;;;;;;20.50;12.38;;;;;;;;;;6252196;28;20115;-62
2022/10/12 01:37:04;;;;;;;21.08;12.15;;;;;;;;;;6250588;28;20056;-62
2022/10/12 01:40:09;;;;;;;15.98;12.65;;;;;;;;;;6252295;28;20222;-62
2022/10/12 01:43:10;;;;;;;19.80;13.18;;;;;;;;;;6250853;28;20064;-62
2022/10/12 01:46:42;;;;;;;22.10;13.15;;;;;;;;;;6252503;28;20159;-63
2022/10/12 01:49:44;;;;;;;17.77;11.85;;;;;;;;;;6251535;28;20049;-62
2022/10/12 01:52:55;;;;;;;16.13;12.80;;;;;;;;;;6255528;28;20750;-62
2022/10/12 01:56:02;;;;;;;18.95;12.50;;;;;;;;;;6251467;28;20049;-62
2022/10/12 01:59:08;;;;;;;22.08;13.90;;;;;;;;;;6250895;28;20593;-62
2022/10/12 02:02:18;;;;;;;18.10;13.75;;;;;;;;;;6247063;28;20053;-62
2022/10/12 02:05:27;;;;;;;19.73;13.00;;;;;;;;;;6249407;28;20052;-62
2022/10/12 02:08:32;;;;;;;19.63;12.68;;;;;;;;;;6250973;28;20050;-62
2022/10/12 02:11:35;;;;;;;17.60;12.30;;;;;;;;;;6251080;28;20631;-61
2022/10/12 02:14:40;;;;;;;26.90;12.93;;;;;;;;;;6249435;28;20042;-61
2022/10/12 02:17:46;;;;;;;16.27;12.80;;;;;;;;;;6250278;28;20171;-61
2022/10/12 02:20:50;;;;;;;19.42;13.75;;;;;;;;;;6251342;28;20107;-61
2022/10/12 02:23:51;;;;;;;;;;;;;;;;;;6255261;28;20049;-61
2022/10/12 02:26:54;;;;;;;18.60;12.40;;;;;;;;;;6251307;28;19936;-61
2022/10/12 02:29:55;;;;;;;15.20;12.73;;;;;;;;;;6254053;28;20065;-61
2022/10/12 02:33:03;;;;;;;15.85;12.35;;;;;;;;;;6253055;28;20048;-61
2022/10/12 02:36:09;;;;;;;18.88;12.77;;;;;;;;;;6250048;28;20041;-62
2022/10/12 02:39:15;;;;;;;18.90;13.25;;;;;;;;;;6252461;28;20280;-62
2022/10/12 02:42:20;;;;;;;15.90;12.20;;;;;;;;;;6251679;28;20049;-61
2022/10/12 02:45:23;;;;;;;15.57;12.45;;;;;;;;;;6250847;28;20057;-61
2022/10/12 02:48:26;;;;;;;18.13;12.18;;;;;;;;;;6246723;28;20207;-61
2022/10/12 02:51:28;;;;;;;16.80;12.57;;;;;;;;;;6253178;28;20053;-61
2022/10/12 02:54:30;;;;;;;19.40;13.27;;;;;;;;;;6251784;28;20112;-61
2022/10/12 02:57:32;;;;;;;16.67;12.05;;;;;;;;;;6252327;28;20053;-61
2022/10/12 03:00:34;;;;;;;16.02;11.63;;;;;;;;;;6249646;28;20053;-61
2022/10/12 03:03:37;;;;;;;15.50;12.07;;;;;;;;;;6248848;28;20053;-62
2022/10/12 03:06:38;;;;;;;16.60;11.65;;;;;;;;;;6252759;28;20072;-61
2022/10/12 03:09:40;;;;;;;17.52;12.15;;;;;;;;;;6253762;28;20119;-62
2022/10/12 03:12:42;;;;;;;17.90;12.18;;;;;;;;;;6256594;28;20052;-64
2022/10/12 03:15:43;;;;;;;18.17;12.13;;;;;;;;;;6253643;28;20049;-61
2022/10/12 03:18:46;;;;;;;20.67;12.68;;;;;;;;;;6258581;28;20046;-61
2022/10/12 03:21:48;;;;;;;15.25;11.50;;;;;;;;;;6254821;28;20052;-64
2022/10/12 03:24:49;;;;;;;18.27;12.40;;;;;;;;;;6255506;28;20150;-63
2022/10/12 03:27:51;;;;;;;16.67;11.85;;;;;;;;;;6257042;28;20069;-63
2022/10/12 03:30:53;;;;;;;16.80;12.07;;;;;;;;;;6254515;28;20214;-63
2022/10/12 03:33:56;;;;;;;19.27;12.23;;;;;;;;;;6256101;28;20314;-63
2022/10/12 03:36:57;;;;;;;15.10;11.93;;;;;;;;;;6258026;28;20042;-63
2022/10/12 03:39:59;;;;;;;15.80;11.80;;;;;;;;;;6254792;28;20131;-61
2022/10/12 03:43:00;;;;;;;13.52;11.20;;;;;;;;;;6258306;28;20057;-61
2022/10/12 03:46:02;;;;;;;21.45;12.38;;;;;;;;;;6260481;28;20272;-63
2022/10/12 03:49:05;;;;;;;15.07;10.73;;;;;;;;;;6261947;28;20053;-64
2022/10/12 03:52:07;;;;;;;15.52;11.32;;;;;;;;;;6257314;28;20171;-63
2022/10/12 03:55:09;;;;;;;15.82;11.30;;;;;;;;;;6262323;28;20046;-62
2022/10/12 03:58:11;;;;;;;13.52;9.77;;;;;;;;;;6260918;28;20049;-62
2022/10/12 04:01:13;;;;;;;17.02;10.90;;;;;;;;;;6255860;28;20053;-65
2022/10/12 04:04:15;;;;;;;13.13;10.50;;;;;;;;;;6261284;28;20076;-63
2022/10/12 04:07:17;;;;;;;17.13;11.17;;;;;;;;;;6262562;28;20395;-61
2022/10/12 04:10:19;;;;;;;22.65;11.43;;;;;;;;;;6257084;28;20045;-63
2022/10/12 04:13:21;;;;;;;14.95;11.38;;;;;;;;;;6262802;28;20095;-63
2022/10/12 04:16:22;;;;;;;16.98;10.88;;;;;;;;;;6256120;28;20237;-61
2022/10/12 04:19:25;;;;;;;18.08;11.60;;;;;;;;;;6254216;28;20447;-63
2022/10/12 04:22:27;;;;;;;15.97;11.13;;;;;;;;;;6255629;28;20111;-63
2022/10/12 04:25:28;;;;;;;18.80;11.63;;;;;;;;;;6255883;28;20045;-61
2022/10/12 04:28:30;;;;;;;13.13;10.40;;;;;;;;;;6253835;28;20053;-63
2022/10/12 04:31:32;;;;;;;18.30;11.65;;;;;;;;;;6250558;28;20060;-63
2022/10/12 04:34:35;;;;;;;13.13;10.23;;;;;;;;;;6255334;28;20053;-62
2022/10/12 04:37:37;;;;;;;16.77;10.75;;;;;;;;;;6252089;28;20053;-64
2022/10/12 04:40:38;;;;;;;15.02;10.73;;;;;;;;;;6251579;28;20328;-64
2022/10/12 04:43:40;;;;;;;15.98;10.85;;;;;;;;;;6257091;28;20064;-64
2022/10/12 04:46:42;;;;;;;13.93;10.32;;;;;;;;;;6254956;28;20057;-64
2022/10/12 04:49:44;;;;;;;15.30;10.27;;;;;;;;;;6252313;28;20164;-65
2022/10/12 04:52:46;;;;;;;16.10;10.77;;;;;;;;;;6255959;28;20100;-63
2022/10/12 04:55:48;;;;;;;20.33;10.38;;;;;;;;;;6255439;28;20053;-63
2022/10/12 04:58:50;;;;;;;14.90;10.45;;;;;;;;;;6253361;28;20344;-66
2022/10/12 05:01:53;;;;;;;13.85;10.77;;;;;;;;;;6253067;28;20060;-65
2022/10/12 05:04:56;;;;;;;13.20;10.13;;;;;;;;;;6249898;28;20119;-65
2022/10/12 05:07:58;;;;;;;;;;;;;;;;;;6253916;28;20269;-64
2022/10/12 05:10:59;;;;;;;14.48;10.00;;;;;;;;;;6254167;28;19933;-65
2022/10/12 05:14:01;;;;;;;14.57;10.35;;;;;;;;;;6248160;28;20069;-65
2022/10/12 05:17:03;;;;;;;13.70;10.57;;;;;;;;;;6253214;28;20057;-63
2022/10/12 05:20:08;;;;;;;14.73;10.98;;;;;;;;;;6256484;28;20273;-64
2022/10/12 05:23:09;;;;;;;13.13;9.25;;;;;;;;;;6253628;28;20049;-64
2022/10/12 05:26:11;;;;;;;16.45;10.52;;;;;;;;;;6250709;28;20166;-64
2022/10/12 05:29:13;;;;;;;16.73;10.18;;;;;;;;;;6253209;28;20104;-63
2022/10/12 05:32:15;;;;;;;13.95;10.25;;;;;;;;;;6254827;28;20064;-64
2022/10/12 05:35:18;;;;;;;15.73;10.38;;;;;;;;;;6251309;28;20276;-64
2022/10/12 05:38:20;;;;;;;14.63;10.60;;;;;;;;;;6249571;28;20384;-63
2022/10/12 05:41:22;;;;;;;17.98;10.38;;;;;;;;;;6249553;28;20052;-64
2022/10/12 05:44:23;;;;;;;15.23;10.07;;;;;;;;;;6247550;28;20057;-64
2022/10/12 05:47:25;;;;;;;13.88;10.60;;;;;;;;;;6252492;28;20064;-63
2022/10/12 05:50:28;;;;;;;14.40;10.27;;;;;;;;;;6252267;28;20151;-64
2022/10/12 05:53:30;;;;;;;14.97;11.00;;;;;;;;;;6251915;28;20060;-65
2022/10/12 05:56:31;;;;;;;17.92;10.88;;;;;;;;;;6249473;28;20053;-64
2022/10/12 05:59:33;;;;;;;15.50;10.43;;;;;;;;;;6251371;28;20276;-63
2022/10/12 06:02:35;;;;;;;14.10;10.32;;;;;;;;;;6248987;28;20052;-63
2022/10/12 06:05:38;;;;;;;15.27;10.40;;;;;;;;;;6251376;28;20099;-63
2022/10/12 06:08:40;;;;;;;13.57;10.40;;;;;;;;;;6250839;28;20136;-63
2022/10/12 06:11:41;;;;;;;15.93;10.77;;;;;;;;;;6248793;28;20053;-63
2022/10/12 06:14:43;;;;;;;13.35;10.40;;;;;;;;;;6249682;28;20049;-63
2022/10/12 06:17:44;;;;;;;15.15;10.82;;;;;;;;;;6248360;28;20075;-62
2022/10/12 06:20:49;;;;;;;14.35;10.90;;;;;;;;;;6248726;28;20071;-62
2022/10/12 06:23:51;;;;;;;20.42;11.10;;;;;;;;;;6249607;28;20080;-63
2022/10/12 06:26:53;;;;;;;16.48;10.77;;;;;;;;;;6249933;28;20088;-63
2022/10/12 06:29:54;;;;;;;15.15;11.63;;;;;;;;;;6253315;28;20064;-62
2022/10/12 06:32:56;;;;;;;17.75;12.07;;;;;;;;;;6251901;28;20037;-62
2022/10/12 06:35:59;;;;;;;15.90;10.75;;;;;;;;;;6252371;28;20060;-63
2022/10/12 06:39:01;;;;;;;13.40;10.17;;;;;;;;;;6253054;28;20053;-64
2022/10/12 06:42:02;;;;;;;14.77;10.75;;;;;;;;;;6252675;28;20053;-62
2022/10/12 06:45:05;;;;;;;13.05;10.05;;;;;;;;;;6255409;28;20057;-62
2022/10/12 06:48:07;;;;;;;17.13;10.70;;;;;;;;;;6256511;28;20054;-62
2022/10/12 06:51:10;;;;;;;18.60;11.10;;;;;;;;;;6257032;28;20076;-62
2022/10/12 06:54:12;;;;;;;10.27;8.13;;;;;;;;;;6254920;28;20423;-62
2022/10/12 06:57:13;;;;;;;19.00;11.20;;;;;;;;;;6255124;28;20886;-62
2022/10/12 07:00:16;;;;;;;17.40;11.02;;;;;;;;;;6255547;28;20125;-62
2022/10/12 07:03:17;;;;;;;21.27;11.25;;;;;;;;;;6253941;28;20057;-62
2022/10/12 07:06:20;;;;;;;24.63;12.15;;;;;;;;;;6256563;28;20054;-62
2022/10/12 07:09:22;;;;;;;24.07;11.80;;;;;;;;;;6254951;28;20049;-63
2022/10/12 07:12:23;;;;;;;23.65;12.18;;;;;;;;;;6255312;28;20521;-62
2022/10/12 07:15:25;;;;;;;16.40;10.98;;;;;;;;;;6255842;28;20556;-62
2022/10/12 07:18:27;;;;;;;19.27;11.32;;;;;;;;;;6256667;28;20045;-62
2022/10/12 07:21:30;;;;;;;15.95;11.75;;;;;;;;;;6257287;28;20272;-63
2022/10/12 07:24:35;;;;;;;15.37;11.07;;;;;;;;;;6255503;28;20053;-62
2022/10/12 07:27:36;;;;;;;24.25;11.70;;;;;;;;;;6254038;28;20475;-62
2022/10/12 07:30:38;;;;;;;19.80;12.00;;;;;;;;;;6255296;28;20123;-62
2022/10/12 07:33:40;;;;;;;23.85;12.13;;;;;;;;;;6255836;28;20049;-63
2022/10/12 07:36:43;;;;;;;15.25;10.82;;;;;;;;;;6258462;28;20116;-62
2022/10/12 07:39:45;;;;;;;;;;;;;;;;;;6256125;28;20325;-62
2022/10/12 07:42:46;;;;;;;18.60;11.27;;;;;;;;;;6256835;28;20151;-62
2022/10/12 07:45:48;;;;;;;20.33;11.35;;;;;;;;;;6254547;28;20053;-62
2022/10/12 07:48:49;;;;;;;15.48;10.40;;;;;;;;;;6258276;28;20049;-62
2022/10/12 07:51:52;;;;;;;22.95;10.02;;;;;;;;;;6255189;28;20057;-62
2022/10/12 07:54:54;;;;;;;23.98;10.60;;;;;;;;;;6254819;28;20053;-62
2022/10/12 07:57:56;;;;;;;23.88;11.88;;;;;;;;;;6255539;28;20103;-63
2022/10/12 08:01:04;;;;;;;28.05;12.05;;;;;;;;;;6251618;28;20053;-62
2022/10/12 08:04:06;;;;;;;19.80;12.65;;;;;;;;;;6255589;28;20068;-62
2022/10/12 08:07:09;;;;;;;16.02;11.48;;;;;;;;;;6253641;28;20057;-62
2022/10/12 08:10:11;;;;;;;15.55;10.77;;;;;;;;;;6254401;28;20061;-63
2022/10/12 08:13:12;;;;;;;14.43;10.73;;;;;;;;;;6255106;28;20060;-62
2022/10/12 08:16:16;;;;;;;14.45;10.55;;;;;;;;;;6254051;28;20057;-62
2022/10/12 08:19:17;;;;;;;;;;;;;;;;;;6258470;28;20045;-63
2022/10/12 08:22:20;;;;;;;16.60;11.50;;;;;;;;;;6254459;28;19925;-62
2022/10/12 08:25:22;;;;;;;12.77;10.52;;;;;;;;;;6253307;28;20084;-63
2022/10/12 08:28:24;;;;;;;16.73;11.85;;;;;;;;;;6255992;28;20249;-62
2022/10/12 08:31:26;;;;;;;15.07;11.27;;;;;;;;;;6256020;28;20061;-63
2022/10/12 08:34:29;;;;;;;12.10;9.57;;;;;;;;;;6254502;28;20045;-64
2022/10/12 08:37:32;;;;;;;21.35;12.32;;;;;;;;;;6255727;28;20091;-64
2022/10/12 08:40:38;;;;;;;17.35;11.80;;;;;;;;;;6252899;28;20049;-62
2022/10/12 08:43:54;;;;;;;14.48;10.55;;;;;;;;;;6253226;28;20268;-63
2022/10/12 08:46:57;;;;;;;18.98;11.98;;;;;;;;;;6253828;28;20056;-63
2022/10/12 08:49:59;;;;;;;19.23;12.85;;;;;;;;;;6254541;28;20065;-63
2022/10/12 08:53:05;;;;;;;21.47;12.57;;;;;;;;;;6253085;28;20050;-63
2022/10/12 08:56:08;;;;;;;16.40;11.65;;;;;;;;;;6251649;28;20060;-63
2022/10/12 08:59:12;;;;;;;18.90;12.23;;;;;;;;;;6254739;28;20076;-63
2022/10/12 09:02:31;;;;;;;17.75;12.10;;;;;;;;;;6253101;28;20204;-63
2022/10/12 09:05:37;;;;;;;17.65;12.82;;;;;;;;;;6254491;28;20076;-63
2022/10/12 09:08:53;;;;;;;16.92;12.93;;;;;;;;;;6252729;28;20140;-62
2022/10/12 09:12:04;;;;;;;16.02;12.70;;;;;;;;;;6252449;28;20052;-63
2022/10/12 09:15:11;;;;;;;14.63;11.32;;;;;;;;;;6255534;28;20053;-63
2022/10/12 09:18:16;;;;;;;14.52;10.05;;;;;;;;;;6255877;28;20160;-63
2022/10/12 09:21:19;;;;;;;13.20;8.52;;;;;;;;;;6252698;28;20950;-63
2022/10/12 09:24:24;;;;;;;15.35;9.52;;;;;;;;;;6256001;28;20045;-63
2022/10/12 09:27:30;;;;;;;11.80;7.82;;;;;;;;;;6253398;28;20079;-63
2022/10/12 09:30:33;;;;;;;13.48;9.07;;;;;;;;;;6252177;28;20046;-63
2022/10/12 09:33:38;;;;;;;12.85;7.57;;;;;;;;;;6255632;28;20057;-63
2022/10/12 09:36:41;;;;;;;15.27;9.57;;;;;;;;;;6254548;28;20058;-64
2022/10/12 09:39:44;;;;;;;11.20;7.22;;;;;;;;;;6251995;28;20045;-64
2022/10/12 09:42:46;;;;;;;11.73;7.45;;;;;;;;;;6253884;28;20064;-63
2022/10/12 09:45:48;;;;;;;11.07;6.63;;;;;;;;;;6252662;28;20233;-64
2022/10/12 09:48:59;;;;;;;10.23;7.00;;;;;;;;;;6253806;28;20180;-63
2022/10/12 09:52:01;;;;;;;10.63;6.75;;;;;;;;;;6252700;28;20045;-63
2022/10/12 09:55:06;;;;;;;10.57;7.15;;;;;;;;;;6252686;28;20053;-64
2022/10/12 09:58:17;;;;;;;8.57;6.72;;;;;;;;;;6253946;28;20061;-64
2022/10/12 10:01:22;;;;;;;10.48;5.97;;;;;;;;;;6253020;28;20375;-64
2022/10/12 10:04:25;;;;;;;7.72;5.45;;;;;;;;;;6253891;28;20057;-64
2022/10/12 10:07:29;;;;;;;10.43;7.47;;;;;;;;;;6251853;28;20045;-64
2022/10/12 10:10:32;;;;;;;10.93;6.47;;;;;;;;;;6252796;28;20053;-64
2022/10/12 10:13:37;;;;;;;9.43;6.40;;;;;;;;;;6252734;28;20053;-63
2022/10/12 10:16:47;;;;;;;9.80;6.50;;;;;;;;;;6249239;28;20703;-63
2022/10/12 10:19:50;;;;;;;10.05;6.47;;;;;;;;;;6251686;28;20113;-63
2022/10/12 10:22:51;;;;;;;9.30;6.68;;;;;;;;;;6251258;28;20054;-63
2022/10/12 10:25:57;;;;;;;11.35;8.18;;;;;;;;;;6250241;28;20057;-63
2022/10/12 10:29:16;;;;;;;14.18;6.40;;;;;;;;;;6251699;28;20049;-64
2022/10/12 10:32:25;;;;;;;9.88;6.40;;;;;;;;;;6248925;28;20133;-66
2022/10/12 10:35:27;;;;;;;12.07;8.73;;;;;;;;;;6252939;28;20091;-64
2022/10/12 10:38:31;;;;;;;9.30;8.13;;;;;;;;;;6248772;28;20053;-64
2022/10/12 10:41:37;;;;;;;12.05;7.43;;;;;;;;;;6250279;28;20095;-64
2022/10/12 10:44:39;;;;;;;10.15;7.28;;;;;;;;;;6248359;28;20057;-64
2022/10/12 10:47:45;;;;;;;8.43;6.55;;;;;;;;;;6247405;28;20053;-65
2022/10/12 10:50:51;;;;;;;9.82;7.07;;;;;;;;;;6248265;28;20400;-63
2022/10/12 10:53:53;;;;;;;8.85;7.20;;;;;;;;;;6250757;28;20292;-63
2022/10/12 10:57:01;;;;;;;11.85;6.82;;;;;;;;;;6250508;28;20047;-64
2022/10/12 11:00:05;;;;;;;10.07;7.35;;;;;;;;;;6247676;28;20316;-63
2022/10/12 11:03:12;;;;;;;13.02;7.90;;;;;;;;;;6250121;28;20438;-63
2022/10/12 11:06:19;;;;;;;12.63;7.68;;;;;;;;;;6246559;28;20147;-64
2022/10/12 11:09:24;;;;;;;10.10;6.57;;;;;;;;;;6248492;28;20124;-65
2022/10/12 11:12:30;;;;;;;100.05;77.13;;;;;;;;;;6247898;28;20116;-64
2022/10/12 11:15:35;;;;;;;140.30;111.82;;;;;;;;;;6250226;28;20045;-64
2022/10/12 11:18:40;;;;;;;32.33;23.85;;;;;;;;;;6251822;28;20053;-64
2022/10/12 11:21:47;;;;;;;36.75;25.38;;;;;;;;;;6251561;28;20061;-64
2022/10/12 11:24:52;;;;;;;52.60;38.58;;;;;;;;;;6252366;28;20060;-63
2022/10/12 11:27:56;;;;;;;20.20;15.73;;;;;;;;;;6250562;28;20816;-66
2022/10/12 11:30:58;;;;;;;9.40;6.93;;;;;;;;;;6251705;28;20050;-64
2022/10/12 11:34:02;;;;;;;9.60;6.55;;;;;;;;;;6254622;28;20337;-65
2022/10/12 11:37:04;;;;;;;12.40;8.15;;;;;;;;;;6256959;28;20311;-65
2022/10/12 11:40:06;;;;;;;;;;;;;;;;;;6255734;28;20057;-65
2022/10/12 11:43:16;;;;;;;13.25;7.00;;;;;;;;;;6255573;28;19925;-65
2022/10/12 11:46:21;;;;;;;13.77;7.88;;;;;;;;;;6255321;28;20064;-65
2022/10/12 11:49:26;;;;;;;12.55;7.18;;;;;;;;;;6260637;28;20132;-65
2022/10/12 11:52:35;;;;;;;7.57;5.88;;;;;;;;;;6260789;28;20041;-65
2022/10/12 11:55:49;;;;;;;8.60;6.07;;;;;;;;;;6262721;28;20164;-65
2022/10/12 11:58:56;;;;;;;10.30;7.20;;;;;;;;;;6261271;28;20097;-65
2022/10/12 12:02:10;;;;;;;17.73;12.80;;;;;;;;;;6263157;28;20107;-65
2022/10/12 12:05:12;;;;;;;10.73;7.50;;;;;;;;;;6262288;28;20049;-65
2022/10/12 12:08:22;;;;;;;10.48;7.75;;;;;;;;;;6261390;28;20053;-65
2022/10/12 12:11:26;;;;;;;14.68;10.43;;;;;;;;;;6261255;28;20064;-65
2022/10/12 12:15:00;;;;;;;12.95;9.98;;;;;;;;;;6260767;28;20129;-65
2022/10/12 12:18:11;;;;;;;15.45;10.05;;;;;;;;;;6256351;28;20053;-64
2022/10/12 12:21:13;;;;;;;14.50;10.30;;;;;;;;;;6257880;28;20068;-64
2022/10/12 12:24:16;;;;;;;16.45;9.43;;;;;;;;;;6254680;28;20107;-64
2022/10/12 12:27:23;;;;;;;17.15;11.50;;;;;;;;;;6257470;28;20057;-65
2022/10/12 12:30:36;;;;;;;14.82;9.35;;;;;;;;;;6256940;28;20057;-65
2022/10/12 12:33:41;;;;;;;14.82;11.73;;;;;;;;;;6257369;28;20136;-64
2022/10/12 12:36:44;;;;;;;14.90;9.80;;;;;;;;;;6259468;28;20237;-66
2022/10/12 12:39:52;;;;;;;11.35;8.52;;;;;;;;;;6260268;28;20094;-66
2022/10/12 12:43:21;;;;;;;13.15;10.20;;;;;;;;;;6258140;28;20053;-65
2022/10/12 12:46:26;;;;;;;13.00;8.05;;;;;;;;;;6256873;28;20107;-64
2022/10/12 12:49:28;;;;;;;10.93;8.85;;;;;;;;;;6258603;28;20104;-65
2022/10/12 12:52:33;;;;;;;10.38;8.07;;;;;;;;;;6259363;28;20148;-64
2022/10/12 12:55:44;;;;;;;11.90;7.35;;;;;;;;;;6256720;28;20233;-65
2022/10/12 12:58:56;;;;;;;12.95;8.13;;;;;;;;;;6255876;28;20091;-66
2022/10/12 13:02:20;;;;;;;13.77;8.35;;;;;;;;;;6257008;28;20065;-64
2022/10/12 13:05:44;;;;;;;11.63;9.27;;;;;;;;;;6256352;28;20249;-65
2022/10/12 13:08:56;;;;;;;9.25;6.88;;;;;;;;;;6221993;28;20048;-64
2022/10/12 13:12:24;;;;;;;11.15;6.95;;;;;;;;;;6258063;28;20116;-65
2022/10/12 13:15:32;;;;;;;14.20;9.23;;;;;;;;;;6257247;28;20057;-66
2022/10/12 13:18:50;;;;;;;15.32;8.85;;;;;;;;;;6235730;28;20138;-64
2022/10/12 13:21:54;;;;;;;13.65;9.00;;;;;;;;;;6248730;28;20057;-66
2022/10/12 13:24:59;;;;;;;10.23;8.90;;;;;;;;;;6252778;28;20119;-66
2022/10/12 13:28:04;;;;;;;12.38;8.93;;;;;;;;;;6252698;28;20115;-66
2022/10/12 13:31:09;;;;;;;9.90;7.70;;;;;;;;;;6252718;28;20049;-66
2022/10/12 13:34:17;;;;;;;13.00;8.20;;;;;;;;;;6254736;28;20057;-66
2022/10/12 13:37:19;;;;;;;12.95;8.65;;;;;;;;;;6254664;28;20772;-66
2022/10/12 13:40:28;;;;;;;9.65;7.40;;;;;;;;;;6253000;28;20041;-67
2022/10/12 13:43:39;;;;;;;11.50;7.55;;;;;;;;;;6255659;28;20053;-67
2022/10/12 13:46:43;;;;;;;12.60;7.95;;;;;;;;;;6252166;28;20064;-66
2022/10/12 13:49:46;;;;;;;11.20;8.35;;;;;;;;;;6248460;28;20084;-65
2022/10/12 13:52:54;;;;;;;10.35;7.90;;;;;;;;;;6254014;28;20080;-65
2022/10/12 13:56:01;;;;;;;10.85;7.60;;;;;;;;;;6249060;28;20379;-65
2022/10/12 13:59:03;;;;;;;9.38;7.50;;;;;;;;;;6255077;28;20041;-66
2022/10/12 14:02:17;;;;;;;11.27;7.43;;;;;;;;;;6253399;28;20371;-67
2022/10/12 14:05:22;;;;;;;11.15;6.75;;;;;;;;;;6253849;28;20236;-64
2022/10/12 14:08:26;;;;;;;10.27;7.10;;;;;;;;;;6252094;28;20045;-65
2022/10/12 14:11:28;;;;;;;10.05;7.25;;;;;;;;;;6252970;28;20229;-64
2022/10/12 14:14:33;;;;;;;12.25;7.55;;;;;;;;;;6255439;28;20041;-67
2022/10/12 14:17:43;;;;;;;10.02;7.65;;;;;;;;;;6251921;28;20331;-68
2022/10/12 14:20:46;;;;;;;12.43;7.72;;;;;;;;;;6246485;28;20347;-63
2022/10/12 14:23:49;;;;;;;11.48;7.72;;;;;;;;;;6252823;28;20045;-64
2022/10/12 14:26:55;;;;;;;11.23;6.68;;;;;;;;;;6252670;28;20264;-63
2022/10/12 14:30:05;;;;;;;12.50;6.78;;;;;;;;;;6251545;28;20049;-64
2022/10/12 14:33:12;;;;;;;10.55;6.57;;;;;;;;;;6251830;28;20077;-65
2022/10/12 14:36:22;;;;;;;9.27;6.25;;;;;;;;;;6250184;28;20064;-67
2022/10/12 14:39:26;;;;;;;8.80;6.57;;;;;;;;;;6253964;28;20061;-65
2022/10/12 14:42:33;;;;;;;13.23;7.75;;;;;;;;;;6253331;28;20340;-65
2022/10/12 14:45:35;;;;;;;13.07;9.20;;;;;;;;;;6253595;28;20053;-65
2022/10/12 14:48:36;;;;;;;12.37;8.03;;;;;;;;;;6252945;28;20348;-65
2022/10/12 14:51:39;;;;;;;13.02;9.00;;;;;;;;;;6252935;28;20049;-65
2022/10/12 14:54:41;;;;;;;;;;;;;;;;;;6252717;28;20059;-65
2022/10/12 14:57:42;;;;;;;9.80;7.30;;;;;;;;;;6252969;28;19925;-66
2022/10/12 15:00:44;;;;;;;14.75;8.90;;;;;;;;;;6252504;28;20140;-63
2022/10/12 15:03:46;;;;;;;12.65;7.47;;;;;;;;;;6253548;28;20073;-65
2022/10/12 15:06:49;;;;;;;10.43;8.15;;;;;;;;;;6256845;28;20057;-65
2022/10/12 15:09:51;;;;;;;12.60;8.73;;;;;;;;;;6253528;28;20348;-63
2022/10/12 15:12:53;;;;;;;10.73;7.25;;;;;;;;;;6251764;28;20270;-63
2022/10/12 15:15:55;;;;;;;12.77;8.80;;;;;;;;;;6257220;28;20049;-63
2022/10/12 15:18:57;;;;;;;9.00;6.78;;;;;;;;;;6256545;28;20103;-65
2022/10/12 15:22:00;;;;;;;11.88;6.95;;;;;;;;;;6256443;28;20236;-64
2022/10/12 15:25:02;;;;;;;;;;;;;;;;;;6259094;28;20064;-62
2022/10/12 15:28:04;;;;;;;66.00;45.55;;;;;;;;;;6253903;28;19924;-62
2022/10/12 15:31:06;;;;;;;235.83;148.07;;;;;;;;;;6258810;28;20294;-62
2022/10/12 15:34:10;;;;;;;79.63;50.22;;;;;;;;;;6257258;28;20451;-62
2022/10/12 15:37:13;;;;;;;57.85;36.13;;;;;;;;;;6258152;28;20276;-61
2022/10/12 15:40:16;;;;;;;86.20;52.03;;;;;;;;;;6256945;28;20126;-62
2022/10/12 15:43:17;;;;;;;29.52;20.08;;;;;;;;;;6257646;28;20202;-62
2022/10/12 15:46:20;;;;;;;15.65;8.65;;;;;;;;;;6257816;28;20352;-62
2022/10/12 15:49:23;;;;;;;74.65;52.72;;;;;;;;;;6256410;28;20068;-62
2022/10/12 15:52:26;;;;;;;61.05;38.50;;;;;;;;;;6258480;28;20157;-62
2022/10/12 15:55:29;;;;;;;69.75;50.15;;;;;;;;;;6257591;28;20348;-62
2022/10/12 15:58:31;;;;;;;31.70;19.90;;;;;;;;;;6252909;28;20057;-62
2022/10/12 16:01:33;;;;;;;13.63;8.57;;;;;;;;;;6248832;28;20060;-62
2022/10/12 16:04:34;;;;;;;11.27;6.40;;;;;;;;;;6254917;28;20336;-63
2022/10/12 16:07:37;;;;;;;13.15;7.40;;;;;;;;;;6256479;28;20065;-63
2022/10/12 16:10:41;;;;;;;12.77;8.60;;;;;;;;;;6258004;28;20341;-63
2022/10/12 16:13:44;;;;;;;14.82;6.45;;;;;;;;;;6255672;28;20057;-63
2022/10/12 16:16:46;;;;;;;10.30;7.18;;;;;;;;;;6257487;28;20155;-63
2022/10/12 16:19:47;;;;;;;12.73;7.75;;;;;;;;;;6254143;28;20061;-63
2022/10/12 16:22:51;;;;;;;11.85;7.00;;;;;;;;;;6258483;28;20049;-63
2022/10/12 16:25:52;;;;;;;12.23;7.20;;;;;;;;;;6257659;28;20336;-63
2022/10/12 16:28:54;;;;;;;11.95;7.97;;;;;;;;;;6255656;28;20363;-63
2022/10/12 16:31:56;;;;;;;14.30;7.95;;;;;;;;;;6254798;28;20049;-62
2022/10/12 16:34:57;;;;;;;14.52;8.35;;;;;;;;;;6256688;28;20057;-62
2022/10/12 16:38:00;;;;;;;13.73;7.65;;;;;;;;;;6254936;28;20053;-64
2022/10/12 16:41:08;;;;;;;12.82;7.85;;;;;;;;;;6253461;28;20044;-62
2022/10/12 16:44:09;;;;;;;11.48;6.88;;;;;;;;;;6256062;28;20155;-64
2022/10/12 16:47:11;;;;;;;9.43;7.13;;;;;;;;;;6256274;28;20076;-62
2022/10/12 16:50:13;;;;;;;13.95;7.95;;;;;;;;;;6258513;28;20371;-62
2022/10/12 16:53:16;;;;;;;14.05;8.70;;;;;;;;;;6256382;28;20127;-62
2022/10/12 16:56:17;;;;;;;16.33;8.45;;;;;;;;;;6255772;28;20065;-62
2022/10/12 16:59:19;;;;;;;10.80;7.80;;;;;;;;;;6256575;28;20111;-62
2022/10/12 17:02:21;;;;;;;14.07;7.72;;;;;;;;;;6256982;28;20103;-63
2022/10/12 17:05:23;;;;;;;16.35;8.70;;;;;;;;;;6253931;28;20052;-63
2022/10/12 17:08:26;;;;;;;16.13;9.15;;;;;;;;;;6254475;28;20041;-63
2022/10/12 17:11:27;;;;;;;13.77;9.07;;;;;;;;;;6255905;28;20667;-63
2022/10/12 17:14:29;;;;;;;13.23;8.45;;;;;;;;;;6251346;28;20268;-62
2022/10/12 17:17:31;;;;;;;14.73;8.60;;;;;;;;;;6245448;28;20187;-62
2022/10/12 17:20:32;;;;;;;15.93;9.07;;;;;;;;;;6251111;28;20450;-63
2022/10/12 17:23:35;;;;;;;13.57;10.02;;;;;;;;;;6250915;28;20264;-63
2022/10/12 17:26:37;;;;;;;13.82;8.80;;;;;;;;;;6250861;28;20225;-63
2022/10/12 17:29:39;;;;;;;17.55;9.77;;;;;;;;;;6249989;28;20068;-63
2022/10/12 17:32:41;;;;;;;12.98;8.25;;;;;;;;;;6252446;28;20099;-62
2022/10/12 17:35:43;;;;;;;17.92;9.43;;;;;;;;;;6250078;28;20079;-65
2022/10/12 17:38:46;;;;;;;15.90;9.73;;;;;;;;;;6250264;28;20206;-62
2022/10/12 17:41:47;;;;;;;15.73;9.55;;;;;;;;;;6251060;28;20139;-62
2022/10/12 17:44:49;;;;;;;15.10;8.90;;;;;;;;;;6255023;28;20057;-62
2022/10/12 17:47:51;;;;;;;13.32;8.25;;;;;;;;;;6255533;28;20045;-64
2022/10/12 17:50:52;;;;;;;14.75;8.70;;;;;;;;;;6256287;28;20159;-63
2022/10/12 17:53:55;;;;;;;12.50;8.00;;;;;;;;;;6257552;28;20056;-63
2022/10/12 17:56:57;;;;;;;14.40;8.30;;;;;;;;;;6256006;28;20114;-64
2022/10/12 17:59:59;;;;;;;15.82;7.28;;;;;;;;;;6252365;28;20057;-64
2022/10/12 18:03:00;;;;;;;11.55;7.45;;;;;;;;;;6254045;28;20060;-64